Brayton, Iowa
Current Conditions -  °F | °C
As of 3:55 AM on Friday 31 Oct 2014 (Local Time) from KADU Reporting Station
Clear Clear  
Wind Chill: 19°   Ceiling: Unl
Heat Index: 30°   Visibility: 10mi
Dew Point: 18°   Wind: 15mph
Humidity: 60%   Direction: 350°N
Pressure: 30.44"   Gusts: 26mph
Location:  41.54°N, 94.92°W
Report Text: KADU 310855Z AUTO 35013G23KT 10SM CLR M01/M08 A3044 RMK AO2
Loading
Personal Weather Stations






























Interactive Weather Map
Tropical Storm Tracking
New forecast layout! Learn more

10-Day Weather Forecast

Advertisements
Track Severe Weather on mobile